AA12 weather

Dove Island Lodge Seaplane Base
Sitka, Alaska, United States

Public forecast

Using degrees Fahrenheit for public forecast. Weather courtesy of forecast.io.

Closest aviation weather report (METAR) to Dove Island Lodge Seaplane Base

Closest report is Sitka Rocky Gutierrez Airport, 2.2 nm (4.1 km) W. Retrieved 2019/10/18 11:53 UTC (1 hour ago):

PASI 181153Z 09006KT 10SM SCT024 BKN033 BKN048 08/06 A2916

Closest aviation forecast (TAF) to Dove Island Lodge Seaplane Base

Closest forecast is Sitka Rocky Gutierrez Airport, 2.2 nm (4.1 km) W. Retrieved 2019/10/18 12:22 UTC (35 minutes ago):

TAF PASI 181120Z 1812/1912 09008KT P6SM VCSH SCT025 BKN040 OVC060 FM182100 13006KT P6SM -SHRA OVC040 FM190300 13005KT P6SM VCSH OVC050 FM190900 11005KT P6SM -SHRA OVC050